Jerome, Missouri
Current Conditions -  °F | °C
As of 8:58 AM on Wednesday 22 Oct 2014 (Local Time) from KTBN Reporting Station
Clear Clear  
Wind Chill: 44°   Ceiling: Unl
Heat Index: 48°   Visibility: 10mi
Dew Point: 44°   Wind: 7mph
Humidity: 87%   Direction: 160°SSE
Pressure: 30.28"   Gusts: NA
Location:  37.93°N, 91.98°W
Report Text: KTBN 221358Z AUTO 16006KT 10SM CLR 09/07 A3028 RMK AO2 SLP257 T00870066
Loading
Personal Weather Stations






























Interactive Weather Map
Tropical Storm Tracking
New forecast layout! Learn more

10-Day Weather Forecast

Advertisements
Track Severe Weather on mobile